Time;durP1;ratioP1;P1;durP2;ratioP2;P2;SDS_P1;SDS_P2;PMS_P1;PMS_P2;Temp;Humidity;BMP_temperature;BMP_pressure;BME280_temperature;BME280_humidity;BME280_pressure;Samples;Min_cycle;Max_cycle;Signal;HPM_P1;HPM_P2
2021/03/31 00:02:20;;;;;;;29.08;18.77;;;;;;;9.62;58.66;102373.59;5241965;28;20108;-69
2021/03/31 00:04:52;;;;;;;33.67;20.58;;;;;;;9.61;58.59;102375.38;5240342;28;20052;-69
2021/03/31 00:07:23;;;;;;;31.30;19.85;;;;;;;9.65;59.14;102374.28;5238638;28;20068;-68
2021/03/31 00:09:54;;;;;;;34.17;20.40;;;;;;;9.57;58.47;102367.78;5241509;28;20076;-68
2021/03/31 00:12:25;;;;;;;32.80;20.20;;;;;;;9.53;59.93;102379.34;5241699;28;20474;-69
2021/03/31 00:14:57;;;;;;;33.65;19.13;;;;;;;9.59;60.27;102374.63;5239913;28;20029;-69
2021/03/31 00:17:28;;;;;;;33.45;20.70;;;;;;;9.44;59.05;102368.47;5239563;28;20124;-69
2021/03/31 00:19:59;;;;;;;28.75;19.90;;;;;;;9.40;59.40;102371.34;5239750;28;20390;-68
2021/03/31 00:22:30;;;;;;;35.05;20.33;;;;;;;9.41;59.82;102370.41;5239336;28;20494;-68
2021/03/31 00:25:02;;;;;;;33.90;20.13;;;;;;;9.27;59.56;102366.78;5239409;28;20021;-69
2021/03/31 00:27:34;;;;;;;33.47;20.13;;;;;;;9.34;60.22;102362.06;5240740;28;20523;-68
2021/03/31 00:30:09;;;;;;;34.28;20.25;;;;;;;9.27;60.04;102361.56;5241822;28;20029;-69
2021/03/31 00:32:40;;;;;;;29.98;19.13;;;;;;;9.27;60.89;102356.31;5240945;28;20049;-69
2021/03/31 00:35:11;;;;;;;32.28;19.08;;;;;;;9.23;61.46;102353.97;5239053;28;20025;-69
2021/03/31 00:37:43;;;;;;;32.65;20.58;;;;;;;9.22;61.90;102357.50;5240755;28;20033;-70
2021/03/31 00:40:18;;;;;;;33.15;19.58;;;;;;;9.09;61.47;102338.19;5239016;28;20032;-69
2021/03/31 00:42:49;;;;;;;36.53;20.40;;;;;;;9.05;61.11;102350.56;5241085;28;20075;-69
2021/03/31 00:45:21;;;;;;;32.80;20.98;;;;;;;9.00;61.44;102343.00;5238789;28;20457;-69
2021/03/31 00:47:52;;;;;;;33.58;21.08;;;;;;;8.89;60.95;102332.28;5237885;28;20064;-69
2021/03/31 00:50:24;;;;;;;31.88;20.33;;;;;;;8.88;61.55;102338.44;5240319;28;20096;-69
2021/03/31 00:52:57;;;;;;;37.75;22.70;;;;;;;8.96;61.62;102333.63;5238074;28;20047;-69
2021/03/31 00:55:30;;;;;;;37.10;22.42;;;;;;;8.85;61.92;102325.53;5239238;28;20405;-69
2021/03/31 00:58:02;;;;;;;33.33;22.35;;;;;;;8.89;62.00;102329.66;5241871;28;20032;-69
2021/03/31 01:00:33;;;;;;;33.33;20.90;;;;;;;8.82;62.61;102317.84;5238110;28;20033;-68
2021/03/31 01:03:06;;;;;;;36.83;22.58;;;;;;;8.78;62.28;102321.53;5238314;28;20025;-69
2021/03/31 01:05:37;;;;;;;31.08;21.08;;;;;;;8.76;62.82;102318.19;5241654;28;20040;-68
2021/03/31 01:08:08;;;;;;;34.80;21.85;;;;;;;8.78;63.22;102316.31;5238289;28;20402;-68
2021/03/31 01:10:47;;;;;;;34.20;22.42;;;;;;;8.70;62.23;102315.88;5234908;28;20033;-69
2021/03/31 01:13:33;;;;;;;34.75;22.38;;;;;;;8.60;62.35;102317.28;5239080;28;20070;-69
2021/03/31 01:16:42;;;;;;;32.80;21.80;;;;;;;8.64;61.04;102311.84;5228574;28;20666;-69
2021/03/31 01:19:26;;;;;;;36.13;21.83;;;;;;;8.60;61.50;102304.22;5237919;28;20470;-69
2021/03/31 01:22:18;;;;;;;37.70;21.55;;;;;;;8.59;62.50;102305.16;5239015;28;20029;-69
2021/03/31 01:25:04;;;;;;;32.53;21.48;;;;;;;8.47;62.93;102288.38;5238407;28;20147;-68
2021/03/31 01:28:03;;;;;;;39.17;22.27;;;;;;;8.48;62.04;102300.50;5239345;28;20394;-68
2021/03/31 01:30:40;;;;;;;36.28;23.08;;;;;;;8.35;62.09;102296.84;5238491;28;20033;-68
2021/03/31 01:33:34;;;;;;;36.83;23.02;;;;;;;8.37;62.46;102292.34;5239722;28;20118;-69
2021/03/31 01:36:07;;;;;;;38.60;22.60;;;;;;;8.28;62.11;102294.53;5238648;28;20398;-68
2021/03/31 01:38:42;;;;;;;41.15;23.25;;;;;;;8.20;62.62;102296.69;5237557;28;20387;-68
2021/03/31 01:41:17;;;;;;;36.17;22.90;;;;;;;8.12;63.01;102287.56;5238374;28;20120;-69
2021/03/31 01:43:52;;;;;;;40.10;22.88;;;;;;;8.08;63.15;102288.66;5230998;28;20040;-69
2021/03/31 01:46:29;;;;;;;39.38;24.08;;;;;;;8.15;63.57;102287.44;5236206;28;20090;-69
2021/03/31 01:49:02;;;;;;;35.78;22.50;;;;;;;8.01;63.74;102286.34;5240153;28;20047;-69
2021/03/31 01:51:34;;;;;;;;;;;;;;;8.33;60.53;102283.00;5239283;28;20170;-69
2021/03/31 01:54:06;;;;;;;39.55;22.38;;;;;;;8.08;64.02;102278.22;5235737;28;20739;-68
2021/03/31 01:56:38;;;;;;;37.25;22.85;;;;;;;7.97;63.94;102281.38;5239334;28;20029;-69
2021/03/31 01:59:10;;;;;;;40.47;23.15;;;;;;;7.85;64.66;102276.78;5237635;28;20068;-69
2021/03/31 02:01:43;;;;;;;37.08;22.70;;;;;;;7.94;64.86;102281.53;5220972;28;20029;-69
2021/03/31 02:04:15;;;;;;;34.50;22.60;;;;;;;7.93;65.21;102274.63;5236489;28;20052;-68
2021/03/31 02:06:49;;;;;;;37.70;21.23;;;;;;;7.86;64.96;102279.31;5233984;28;20112;-69
2021/03/31 02:09:21;;;;;;;35.50;22.17;;;;;;;7.90;65.10;102270.41;5236564;28;20390;-68
2021/03/31 02:11:53;;;;;;;39.75;23.23;;;;;;;7.77;64.57;102277.16;5237359;28;20034;-68
2021/03/31 02:14:25;;;;;;;33.30;21.83;;;;;;;7.90;65.29;102270.41;5239167;28;20033;-69
2021/03/31 02:16:57;;;;;;;36.63;21.48;;;;;;;7.74;65.16;102259.91;5238574;28;20026;-68
2021/03/31 02:19:30;;;;;;;38.05;21.92;;;;;;;7.72;65.82;102261.72;5239995;28;20044;-69
2021/03/31 02:22:01;;;;;;;37.28;22.60;;;;;;;7.69;65.31;102263.63;5239767;28;20036;-68
2021/03/31 02:24:34;;;;;;;35.97;22.17;;;;;;;7.71;66.27;102253.97;5238355;28;20032;-69
2021/03/31 02:27:06;;;;;;;37.78;21.95;;;;;;;7.75;65.84;102255.50;5221010;28;20026;-68
2021/03/31 02:29:38;;;;;;;35.17;21.33;;;;;;;7.69;65.85;102250.59;5239388;28;20040;-69
2021/03/31 02:32:12;;;;;;;38.57;22.77;;;;;;;7.65;65.14;102249.06;5241568;28;20052;-68
2021/03/31 02:34:45;;;;;;;37.15;22.27;;;;;;;7.50;65.30;102246.31;5242855;28;20028;-69
2021/03/31 02:37:18;;;;;;;38.90;21.10;;;;;;;7.50;65.02;102242.84;5242945;28;20036;-69
2021/03/31 02:39:51;;;;;;;36.70;23.02;;;;;;;7.52;65.31;102251.44;5242776;28;20029;-69
2021/03/31 02:42:25;;;;;;;36.95;22.00;;;;;;;7.40;66.13;102244.22;5243328;28;20029;-68
2021/03/31 02:44:58;;;;;;;36.58;22.15;;;;;;;7.59;65.26;102255.44;5241791;28;20029;-68
2021/03/31 02:47:30;;;;;;;38.63;22.55;;;;;;;7.42;66.09;102248.44;5240958;28;20095;-69
2021/03/31 02:50:04;;;;;;;39.92;22.85;;;;;;;7.36;66.57;102253.13;5242336;28;20544;-68
2021/03/31 02:52:36;;;;;;;35.20;22.15;;;;;;;7.22;66.54;102249.41;5240381;28;20064;-69
2021/03/31 02:55:09;;;;;;;35.72;23.25;;;;;;;7.17;67.75;102240.97;5238622;28;20025;-68
2021/03/31 02:57:41;;;;;;;36.97;23.00;;;;;;;7.19;67.80;102240.91;5240287;28;20037;-68
2021/03/31 03:00:13;;;;;;;40.25;22.58;;;;;;;7.17;67.49;102240.97;5242894;28;20033;-69
2021/03/31 03:02:46;;;;;;;36.05;22.85;;;;;;;7.15;67.73;102231.53;5234207;28;20064;-68
2021/03/31 03:05:19;;;;;;;40.00;23.58;;;;;;;7.17;67.88;102245.34;5240958;28;20065;-69
2021/03/31 03:07:51;;;;;;;37.20;22.75;;;;;;;7.10;66.45;102239.59;5243127;28;20021;-69
2021/03/31 03:10:22;;;;;;;35.63;22.73;;;;;;;7.10;66.79;102234.38;5242080;28;20486;-68
2021/03/31 03:12:56;;;;;;;34.67;22.20;;;;;;;7.08;67.52;102244.00;5242353;28;20134;-69
2021/03/31 03:15:30;;;;;;;40.58;23.77;;;;;;;7.22;68.22;102232.94;5248530;28;20022;-68
2021/03/31 03:18:02;;;;;;;39.00;21.35;;;;;;;7.12;67.87;102231.69;5240629;28;20433;-68
2021/03/31 03:20:33;;;;;;;39.47;21.88;;;;;;;7.11;67.90;102233.44;5240296;28;20087;-69
2021/03/31 03:23:06;;;;;;;34.75;20.95;;;;;;;7.03;67.50;102236.41;5240073;28;20033;-69
2021/03/31 03:25:38;;;;;;;36.25;21.65;;;;;;;6.99;68.08;102237.47;5241930;28;20025;-68
2021/03/31 03:28:09;;;;;;;38.00;21.25;;;;;;;6.89;68.70;102225.78;5243070;28;20108;-68
2021/03/31 03:30:41;;;;;;;35.95;22.10;;;;;;;6.90;68.34;102224.91;5240924;28;20174;-69
2021/03/31 03:33:14;;;;;;;35.10;21.60;;;;;;;6.88;68.48;102215.47;5241216;28;20068;-68
2021/03/31 03:35:45;;;;;;;32.67;20.60;;;;;;;6.86;69.24;102218.16;5242254;28;20289;-69
2021/03/31 03:38:17;;;;;;;32.80;20.73;;;;;;;6.87;68.24;102219.84;5242577;28;20033;-69
2021/03/31 03:40:49;;;;;;;36.55;20.70;;;;;;;6.88;68.18;102215.47;5239870;28;20033;-68
2021/03/31 03:43:20;;;;;;;33.03;21.00;;;;;;;6.88;67.97;102212.84;5241916;28;20470;-69
2021/03/31 03:45:56;;;;;;;30.80;19.35;;;;;;;6.88;68.80;102216.31;5235851;28;20030;-69
2021/03/31 03:48:27;;;;;;;30.55;19.88;;;;;;;6.82;67.81;102216.63;5240952;28;20040;-69
2021/03/31 03:50:59;;;;;;;38.95;20.50;;;;;;;6.76;67.49;102212.50;5236335;28;20436;-68
2021/03/31 03:53:30;;;;;;;36.75;20.38;;;;;;;6.66;67.47;102218.22;5240540;28;20041;-69
2021/03/31 03:56:07;;;;;;;34.90;20.20;;;;;;;6.67;68.05;102218.16;5241677;28;20052;-69
2021/03/31 03:58:39;;;;;;;38.33;22.40;;;;;;;6.59;68.00;102212.44;5239984;28;20026;-68
2021/03/31 04:01:10;;;;;;;35.92;20.15;;;;;;;6.66;68.08;102213.00;5238679;28;20094;-68
2021/03/31 04:03:42;;;;;;;37.00;20.98;;;;;;;6.55;67.82;102214.38;5242068;28;20025;-68
2021/03/31 04:06:13;;;;;;;36.63;20.63;;;;;;;6.62;68.26;102214.06;5238755;28;20048;-68
2021/03/31 04:08:45;;;;;;;34.97;21.33;;;;;;;6.63;68.75;102215.75;5240077;28;20025;-68
2021/03/31 04:11:16;;;;;;;30.25;19.48;;;;;;;6.60;68.04;102215.91;5239460;28;20017;-68
2021/03/31 04:13:48;;;;;;;31.40;19.63;;;;;;;6.58;68.21;102213.38;5241666;28;20032;-69
2021/03/31 04:16:20;;;;;;;32.10;19.52;;;;;;;6.52;67.20;102219.72;5242240;28;20054;-68
2021/03/31 04:18:52;;;;;;;31.17;19.50;;;;;;;6.51;68.16;102220.59;5237674;28;20037;-69
2021/03/31 04:21:24;;;;;;;31.77;19.48;;;;;;;6.48;67.63;102219.94;5240233;28;20174;-70
2021/03/31 04:23:55;;;;;;;31.70;19.25;;;;;;;6.49;68.91;102222.44;5239704;28;20149;-70
2021/03/31 04:26:30;;;;;;;35.67;19.65;;;;;;;6.53;68.51;102213.59;5238214;28;20056;-70
2021/03/31 04:29:01;;;;;;;31.05;19.33;;;;;;;6.42;68.46;102223.66;5238997;28;20026;-69
2021/03/31 04:31:35;;;;;;;34.78;19.60;;;;;;;6.43;69.32;102216.66;5240091;28;20060;-70
2021/03/31 04:34:07;;;;;;;31.35;19.42;;;;;;;6.38;70.10;102221.25;5240267;28;20037;-69
2021/03/31 04:36:39;;;;;;;31.25;19.83;;;;;;;6.42;69.32;102215.84;5233814;28;20113;-69
2021/03/31 04:39:10;;;;;;;33.30;19.92;;;;;;;6.26;69.12;102212.25;5241493;28;20021;-70
2021/03/31 04:41:41;;;;;;;31.83;19.70;;;;;;;6.35;69.83;102211.81;5237937;28;20029;-69
2021/03/31 04:44:13;;;;;;;33.25;19.13;;;;;;;6.31;70.06;102215.47;5241962;28;20048;-71
2021/03/31 04:46:44;;;;;;;33.40;19.13;;;;;;;6.29;69.69;102212.09;5239661;28;20044;-69
2021/03/31 04:49:15;;;;;;;35.40;19.48;;;;;;;6.20;69.31;102209.91;5239390;28;20461;-69
2021/03/31 04:51:46;;;;;;;30.75;18.85;;;;;;;6.19;69.01;102209.06;5238125;28;20418;-70
2021/03/31 04:54:18;;;;;;;25.15;18.08;;;;;;;6.25;69.20;102205.31;5240428;28;20415;-71
2021/03/31 04:56:49;;;;;;;31.15;17.85;;;;;;;6.21;68.69;102204.66;5240002;28;20502;-69
2021/03/31 04:59:20;;;;;;;29.48;18.05;;;;;;;6.17;68.17;102204.81;5223300;28;20120;-69
2021/03/31 05:01:51;;;;;;;25.13;17.15;;;;;;;6.13;67.92;102200.66;5239128;28;20025;-71
2021/03/31 05:04:23;;;;;;;27.92;17.17;;;;;;;6.21;69.34;102204.66;5239070;28;20043;-70
2021/03/31 05:06:54;;;;;;;28.08;17.70;;;;;;;6.11;68.83;102200.75;5237484;28;20029;-70
2021/03/31 05:09:25;;;;;;;26.05;18.23;;;;;;;6.09;69.26;102200.81;5233227;28;20029;-69
2021/03/31 05:11:58;;;;;;;28.17;18.13;;;;;;;6.05;68.87;102196.66;5238966;28;20063;-69
2021/03/31 05:14:29;;;;;;;29.35;18.63;;;;;;;6.03;68.68;102200.25;5240654;28;20041;-71
2021/03/31 05:17:00;;;;;;;30.90;18.30;;;;;;;6.00;68.65;102195.19;5239123;28;20079;-68
2021/03/31 05:19:31;;;;;;;28.42;17.38;;;;;;;5.99;68.21;102193.50;5238534;28;20032;-71
2021/03/31 05:22:03;;;;;;;27.92;17.77;;;;;;;5.99;69.10;102194.34;5237482;28;20048;-69
2021/03/31 05:24:34;;;;;;;32.97;18.52;;;;;;;5.99;68.37;102194.34;5238622;28;20075;-69
2021/03/31 05:27:06;;;;;;;37.35;19.17;;;;;;;6.00;68.85;102193.41;5238178;28;20729;-70
2021/03/31 05:29:38;;;;;;;34.25;18.75;;;;;;;5.97;68.89;102196.16;5239946;28;20388;-70
2021/03/31 05:32:09;;;;;;;27.73;18.63;;;;;;;5.93;70.06;102192.00;5239773;28;20407;-69
2021/03/31 05:34:41;;;;;;;30.50;18.40;;;;;;;5.96;70.47;102178.84;5238353;28;20025;-69
2021/03/31 05:37:12;;;;;;;29.08;18.83;;;;;;;5.97;70.62;102185.75;5236962;28;20037;-71
2021/03/31 05:39:44;;;;;;;33.50;18.48;;;;;;;6.04;70.87;102187.16;5240281;28;20435;-70
2021/03/31 05:42:16;;;;;;;35.70;18.60;;;;;;;6.06;70.70;102187.09;5232366;28;20075;-70
2021/03/31 05:44:47;;;;;;;28.42;17.75;;;;;;;6.02;69.89;102185.53;5238099;28;20494;-68
2021/03/31 05:47:32;;;;;;;25.90;17.40;;;;;;;6.07;70.12;102174.03;5220686;28;20363;-68
2021/03/31 05:50:06;;;;;;;29.27;17.25;;;;;;;6.11;70.70;102181.69;5232265;28;20048;-70
2021/03/31 05:52:39;;;;;;;32.58;17.30;;;;;;;6.04;70.52;102186.31;5237730;28;20029;-70
2021/03/31 05:55:12;;;;;;;33.25;18.08;;;;;;;6.02;69.80;102172.53;5233189;28;20124;-69
2021/03/31 05:57:44;;;;;;;30.10;17.45;;;;;;;6.07;69.71;102170.59;5236669;28;20029;-69
2021/03/31 06:00:20;;;;;;;31.93;17.77;;;;;;;6.11;70.04;102166.94;5238340;28;20040;-69
2021/03/31 06:02:53;;;;;;;27.80;18.25;;;;;;;6.08;70.53;102160.09;5240404;28;20303;-71
2021/03/31 06:05:24;;;;;;;25.75;17.48;;;;;;;6.18;71.17;102168.34;5238920;28;20044;-70
2021/03/31 06:07:55;;;;;;;26.13;18.15;;;;;;;6.18;70.55;102167.50;5237260;28;20021;-69
2021/03/31 06:10:30;;;;;;;26.10;16.55;;;;;;;6.22;70.15;102162.09;5239011;28;20040;-70
2021/03/31 06:13:05;;;;;;;28.15;16.63;;;;;;;6.25;69.61;102168.88;5237675;28;20029;-68
2021/03/31 06:15:41;;;;;;;25.45;16.55;;;;;;;6.29;70.62;102171.31;5247563;28;20087;-69
2021/03/31 06:18:15;;;;;;;25.77;17.98;;;;;;;6.29;70.34;102173.91;5238998;28;20384;-70
2021/03/31 06:20:58;;;;;;;30.65;17.42;;;;;;;6.35;70.66;102172.78;5239324;28;20020;-69
2021/03/31 06:23:40;;;;;;;27.23;17.48;;;;;;;6.40;69.52;102173.38;5236847;28;20104;-69
2021/03/31 06:26:24;;;;;;;24.35;16.50;;;;;;;6.44;69.55;102174.97;5237446;28;20033;-69
2021/03/31 06:29:05;;;;;;;22.77;15.55;;;;;;;6.53;68.45;102177.13;5235083;28;20036;-69
2021/03/31 06:31:45;;;;;;;25.08;17.08;;;;;;;6.51;68.89;102178.94;5235676;28;20060;-68
2021/03/31 06:34:18;;;;;;;26.75;16.48;;;;;;;6.58;68.59;102176.91;5239185;28;20033;-70
2021/03/31 06:36:56;;;;;;;28.77;16.27;;;;;;;6.69;67.35;102168.59;5239888;28;20033;-69
2021/03/31 06:39:31;;;;;;;23.05;14.77;;;;;;;6.79;66.58;102178.53;5236003;28;20029;-70
2021/03/31 06:42:44;;;;;;;22.02;13.75;;;;;;;6.91;66.10;102173.63;5237244;28;20031;-70
2021/03/31 06:45:15;;;;;;;27.35;13.60;;;;;;;7.23;65.06;102179.88;5232021;28;20205;-70
2021/03/31 06:47:59;;;;;;;23.45;13.95;;;;;;;7.16;66.70;102173.28;5239416;28;20022;-69
2021/03/31 06:50:36;;;;;;;31.27;13.18;;;;;;;7.33;65.55;102173.28;5238132;28;20022;-70
2021/03/31 06:53:07;;;;;;;22.80;13.05;;;;;;;7.61;64.13;102174.50;5239512;28;20029;-69
2021/03/31 06:55:39;;;;;;;19.25;13.05;;;;;;;7.60;63.70;102173.66;5238429;28;20025;-69
2021/03/31 06:58:11;;;;;;;21.85;13.48;;;;;;;7.85;61.85;102170.66;5237163;28;20797;-70
2021/03/31 07:00:42;;;;;;;20.80;12.52;;;;;;;7.91;62.05;102172.91;5239264;28;20398;-69
2021/03/31 07:03:14;;;;;;;23.13;12.00;;;;;;;8.16;62.18;102174.25;5237232;28;20030;-70
2021/03/31 07:05:46;;;;;;;20.40;10.40;;;;;;;8.34;60.48;102164.59;5235388;28;20279;-70
2021/03/31 07:08:18;;;;;;;20.08;12.95;;;;;;;8.46;61.66;102166.56;5236778;28;20521;-69
2021/03/31 07:10:52;;;;;;;15.68;10.55;;;;;;;8.69;60.06;102155.69;5237663;28;20108;-69
2021/03/31 07:13:36;;;;;;;17.38;10.98;;;;;;;8.85;59.67;102154.81;5233049;28;20221;-70
2021/03/31 07:16:08;;;;;;;19.23;10.55;;;;;;;9.08;59.02;102159.56;5235559;28;20041;-70
2021/03/31 07:18:40;;;;;;;14.52;9.63;;;;;;;9.29;57.75;102154.88;5240544;28;20091;-70
2021/03/31 07:21:12;;;;;;;19.15;10.90;;;;;;;9.61;56.42;102159.97;5233817;28;20057;-70
2021/03/31 07:23:47;;;;;;;14.13;9.75;;;;;;;9.90;55.48;102159.06;5237143;28;20108;-70
2021/03/31 07:26:22;;;;;;;15.50;9.55;;;;;;;10.09;55.29;102166.63;5241821;28;20119;-71
2021/03/31 07:28:55;;;;;;;16.83;9.23;;;;;;;10.34;54.51;102158.13;5237259;28;20161;-70
2021/03/31 07:31:28;;;;;;;17.80;9.40;;;;;;;10.35;54.60;102162.44;5238321;28;20081;-69
2021/03/31 07:34:09;;;;;;;18.02;9.80;;;;;;;10.64;53.36;102165.81;5223765;28;20386;-69
2021/03/31 07:36:44;;;;;;;13.82;8.52;;;;;;;10.89;53.04;102157.22;5235696;28;20537;-70
2021/03/31 07:39:21;;;;;;;16.27;9.13;;;;;;;11.00;52.70;102155.69;5240853;28;20120;-69
2021/03/31 07:41:54;;;;;;;14.65;8.90;;;;;;;11.13;52.54;102149.50;5242123;28;20083;-68
2021/03/31 07:44:30;;;;;;;18.30;9.03;;;;;;;11.37;51.68;102154.09;5242449;28;20768;-68
2021/03/31 07:47:02;;;;;;;13.57;8.52;;;;;;;11.53;51.10;102153.88;5221216;28;20029;-69
2021/03/31 07:49:34;;;;;;;13.70;8.45;;;;;;;11.63;51.48;102150.53;5225463;28;20048;-68
2021/03/31 07:52:06;;;;;;;12.52;8.07;;;;;;;11.95;49.83;102155.38;5239947;28;20021;-68
2021/03/31 07:54:37;;;;;;;12.10;7.88;;;;;;;12.37;48.80;102143.59;5238577;28;20167;-68
2021/03/31 07:57:26;;;;;;;14.45;7.75;;;;;;;12.46;48.58;102142.09;5240421;28;20036;-71
2021/03/31 07:59:57;;;;;;;14.98;7.45;;;;;;;12.69;47.98;102143.09;5240744;28;20048;-71
2021/03/31 08:02:30;;;;;;;11.05;7.93;;;;;;;12.98;47.55;102142.72;5239682;28;20607;-71
2021/03/31 08:05:08;;;;;;;11.85;8.02;;;;;;;13.05;47.72;102155.28;5240192;28;20176;-68
2021/03/31 08:07:40;;;;;;;17.00;7.72;;;;;;;13.51;46.72;102149.22;5241031;28;20021;-68
2021/03/31 08:10:32;;;;;;;12.98;7.53;;;;;;;13.66;46.30;102146.38;5239866;28;20033;-68
2021/03/31 08:13:25;;;;;;;16.02;8.38;;;;;;;13.85;45.72;102144.81;5241741;28;20386;-70
2021/03/31 08:15:57;;;;;;;15.82;8.02;;;;;;;14.06;45.34;102146.75;5241353;28;20024;-69
2021/03/31 08:18:29;;;;;;;22.08;8.57;;;;;;;14.30;44.76;102139.53;5240186;28;20111;-69
2021/03/31 08:21:00;;;;;;;19.05;9.43;;;;;;;14.42;44.59;102140.34;5240087;28;20030;-69
2021/03/31 08:23:48;;;;;;;12.02;7.32;;;;;;;14.55;45.40;102143.69;5240533;28;20483;-68
2021/03/31 08:26:32;;;;;;;14.63;8.13;;;;;;;14.86;44.56;102145.63;5238903;28;20024;-69
2021/03/31 08:29:10;;;;;;;12.68;8.38;;;;;;;14.98;44.07;102142.81;5222983;28;20035;-69
2021/03/31 08:31:42;;;;;;;15.45;7.95;;;;;;;15.32;43.25;102138.19;5239832;28;20045;-70
2021/03/31 08:34:15;;;;;;;14.32;8.13;;;;;;;15.47;42.62;102141.34;5240203;28;20059;-69
2021/03/31 08:36:47;;;;;;;15.35;8.15;;;;;;;15.76;42.63;102144.16;5241375;28;20032;-69
2021/03/31 08:39:18;;;;;;;13.50;7.72;;;;;;;15.75;41.75;102139.84;5238696;28;20703;-69
2021/03/31 08:41:55;;;;;;;15.55;7.72;;;;;;;15.94;41.45;102135.59;5242574;28;20068;-69
2021/03/31 08:44:31;;;;;;;12.30;7.45;;;;;;;16.04;41.69;102139.13;5245359;28;20846;-70
2021/03/31 08:47:13;;;;;;;12.25;7.90;;;;;;;16.33;40.73;102135.69;5241949;28;20033;-69
2021/03/31 08:49:50;;;;;;;12.73;7.18;;;;;;;16.45;40.33;102126.69;5240586;28;20619;-70
2021/03/31 08:52:22;;;;;;;11.57;8.05;;;;;;;16.63;40.23;102135.63;5241780;28;20021;-70
2021/03/31 08:54:53;;;;;;;12.65;7.28;;;;;;;16.80;39.61;102128.00;5239805;28;20391;-70
2021/03/31 08:57:30;;;;;;;12.27;6.93;;;;;;;17.04;39.04;102133.69;5241130;28;20082;-70
2021/03/31 09:00:04;;;;;;;12.63;7.70;;;;;;;17.13;39.53;102126.72;5232822;28;20021;-69
2021/03/31 09:02:37;;;;;;;11.00;8.00;;;;;;;17.23;39.23;102128.38;5239650;28;20103;-71
2021/03/31 09:05:12;;;;;;;11.32;7.65;;;;;;;17.24;39.63;102129.22;5237103;28;20043;-70
2021/03/31 09:07:43;;;;;;;11.02;7.13;;;;;;;17.47;39.05;102124.44;5239967;28;20029;-70
2021/03/31 09:10:15;;;;;;;16.35;8.40;;;;;;;17.83;38.20;102127.25;5244105;28;20041;-70
2021/03/31 09:12:46;;;;;;;13.82;8.00;;;;;;;17.84;38.41;102128.91;5240223;28;20033;-70
2021/03/31 09:15:17;;;;;;;13.18;7.75;;;;;;;18.11;38.21;102113.03;5218341;28;20029;-71
2021/03/31 09:17:55;;;;;;;12.27;7.78;;;;;;;18.30;35.94;102112.06;5238636;28;20075;-70
2021/03/31 09:20:26;;;;;;;12.63;7.70;;;;;;;18.55;35.25;102120.25;5238010;28;20029;-70
2021/03/31 09:22:57;;;;;;;11.48;7.88;;;;;;;18.74;35.58;102114.81;5228283;28;20032;-70
2021/03/31 09:25:29;;;;;;;14.23;8.63;;;;;;;18.77;35.06;102105.72;5237567;28;20021;-70
2021/03/31 09:28:00;;;;;;;13.43;7.57;;;;;;;18.94;35.18;102107.50;5235350;28;20024;-71
2021/03/31 09:30:31;;;;;;;10.45;8.07;;;;;;;19.19;34.53;102113.84;5234343;28;20032;-70
2021/03/31 09:33:07;;;;;;;11.52;7.53;;;;;;;19.30;34.98;102108.28;5237483;28;20041;-70
2021/03/31 09:35:38;;;;;;;11.05;7.70;;;;;;;19.40;34.74;102105.53;5236295;28;20032;-71
2021/03/31 09:38:09;;;;;;;12.48;8.35;;;;;;;19.61;33.66;102099.81;5237003;28;20029;-69
2021/03/31 09:40:40;;;;;;;11.02;7.40;;;;;;;19.75;32.83;102104.56;5238872;28;20097;-70
2021/03/31 09:43:12;;;;;;;13.65;8.02;;;;;;;19.83;32.66;102106.41;5237701;28;20033;-69
2021/03/31 09:45:43;;;;;;;11.75;7.50;;;;;;;20.00;33.29;102102.84;5221982;28;20124;-70
2021/03/31 09:48:16;;;;;;;13.53;8.40;;;;;;;20.06;32.52;102101.34;5230572;28;20022;-70
2021/03/31 09:50:48;;;;;;;11.95;8.13;;;;;;;20.23;33.26;102091.56;5237178;28;20486;-69
2021/03/31 09:53:25;;;;;;;13.07;8.20;;;;;;;20.37;33.32;102098.91;5238277;28;20033;-70
2021/03/31 09:55:56;;;;;;;10.57;7.20;;;;;;;20.47;32.72;102091.63;5237439;28;20493;-70
2021/03/31 09:58:28;;;;;;;14.43;8.80;;;;;;;20.69;31.80;102094.66;5237598;28;20053;-70
2021/03/31 10:01:00;;;;;;;13.52;8.18;;;;;;;20.86;31.77;102085.66;5231211;28;20490;-70
2021/03/31 10:03:32;;;;;;;15.18;7.57;;;;;;;20.93;32.65;102089.31;5237710;28;20036;-71
2021/03/31 10:06:26;;;;;;;12.63;7.03;;;;;;;21.18;32.03;102084.81;5240310;28;20120;-70
2021/03/31 10:08:57;;;;;;;11.57;7.85;;;;;;;21.18;29.83;102081.31;5236410;28;20679;-71
2021/03/31 10:11:36;;;;;;;12.70;7.30;;;;;;;21.52;30.94;102083.75;5236866;28;20017;-72
2021/03/31 10:14:21;;;;;;;11.90;7.28;;;;;;;21.56;31.49;102080.56;5238549;28;20112;-70
2021/03/31 10:16:52;;;;;;;12.00;7.82;;;;;;;21.58;29.93;102083.88;5236065;28;20021;-70
2021/03/31 10:19:24;;;;;;;11.43;7.43;;;;;;;21.73;28.82;102080.47;5232130;28;20512;-70
2021/03/31 10:22:05;;;;;;;11.77;7.70;;;;;;;21.81;30.29;102080.44;5237739;28;20036;-72
2021/03/31 10:24:48;;;;;;;15.88;8.45;;;;;;;21.98;29.89;102068.69;5237731;28;20095;-70
2021/03/31 10:27:38;;;;;;;14.30;8.35;;;;;;;22.18;29.89;102070.94;5236339;28;20038;-70
2021/03/31 10:30:34;;;;;;;15.65;8.40;;;;;;;22.21;28.85;102068.75;5236266;28;20033;-70
2021/03/31 10:33:06;;;;;;;11.57;7.05;;;;;;;22.35;30.05;102069.81;5231704;28;20053;-71
2021/03/31 10:35:46;;;;;;;13.48;8.85;;;;;;;22.43;28.71;102067.09;5234900;28;20033;-70
2021/03/31 10:39:06;;;;;;;14.15;8.65;;;;;;;22.53;27.88;102062.31;5223900;28;20021;-69
2021/03/31 10:52:14;;;;;;;18.75;9.60;;;;;;;23.09;28.44;102062.00;5240814;28;20048;-69
2021/03/31 10:54:45;;;;;;;18.27;9.05;;;;;;;23.13;26.44;102059.81;5240505;28;20441;-69
2021/03/31 10:57:17;;;;;;;15.47;9.90;;;;;;;22.94;27.38;102053.97;5239704;28;20040;-69
2021/03/31 10:59:48;;;;;;;14.77;8.90;;;;;;;23.19;25.89;102051.06;5238174;28;20037;-69
2021/03/31 11:02:20;;;;;;;13.47;9.40;;;;;;;23.21;26.08;102051.69;5237929;28;20120;-69
2021/03/31 11:04:51;;;;;;;14.07;9.87;;;;;;;23.22;26.08;102048.00;5240223;28;20033;-70
2021/03/31 11:07:22;;;;;;;18.47;11.70;;;;;;;23.32;27.17;102037.84;5239585;28;20018;-69
2021/03/31 11:09:53;;;;;;;16.07;10.70;;;;;;;23.44;26.48;102046.22;5232970;28;20033;-70
2021/03/31 11:12:25;;;;;;;20.53;11.67;;;;;;;23.53;26.59;102037.09;5240093;28;20036;-70
2021/03/31 11:14:58;;;;;;;15.10;10.77;;;;;;;23.59;28.13;102033.66;5236937;28;20061;-69
2021/03/31 11:25:49;;;;;;;18.92;12.98;;;;;;;23.99;28.37;102032.31;5236814;28;20518;-68
2021/03/31 11:28:21;;;;;;;17.38;12.77;;;;;;;23.94;27.57;102036.56;5239351;28;20112;-69
2021/03/31 11:30:53;;;;;;;25.50;14.00;;;;;;;24.08;27.54;102016.13;5237318;28;20033;-71
2021/03/31 11:33:26;;;;;;;20.95;13.45;;;;;;;24.14;27.85;102015.38;5239408;28;20812;-69
2021/03/31 11:35:57;;;;;;;24.00;15.05;;;;;;;24.25;28.11;102017.53;5239563;28;20037;-69
2021/03/31 11:38:28;;;;;;;24.70;14.67;;;;;;;24.33;27.79;102008.53;5240734;28;20421;-68
2021/03/31 11:40:59;;;;;;;22.30;14.83;;;;;;;24.38;27.78;102011.47;5240048;28;20034;-69
2021/03/31 11:43:31;;;;;;;24.60;13.90;;;;;;;24.35;26.83;102014.53;5222833;28;20021;-69
2021/03/31 11:46:02;;;;;;;25.47;15.70;;;;;;;24.27;26.06;102008.28;5239305;28;20074;-69
2021/03/31 11:48:33;;;;;;;23.97;15.97;;;;;;;24.37;26.05;102007.97;5237435;28;20032;-69
2021/03/31 11:51:05;;;;;;;24.60;16.67;;;;;;;24.47;25.60;102000.47;5238888;28;20025;-69
2021/03/31 11:53:36;;;;;;;23.73;15.30;;;;;;;24.60;25.51;102002.41;5238655;28;20035;-71
2021/03/31 11:56:08;;;;;;;25.30;16.93;;;;;;;24.51;26.38;101995.53;5237284;28;20033;-69
2021/03/31 11:58:40;;;;;;;21.38;16.63;;;;;;;24.49;26.01;101990.34;5238600;28;20036;-69
2021/03/31 12:01:12;;;;;;;25.17;17.80;;;;;;;24.59;26.11;101984.69;5240733;28;20037;-69
2021/03/31 12:03:43;;;;;;;27.90;18.50;;;;;;;24.69;25.42;101987.00;5237222;28;20501;-69
2021/03/31 12:06:14;;;;;;;28.33;18.10;;;;;;;24.79;26.07;101982.13;5236445;28;20063;-70
2021/03/31 12:08:47;;;;;;;30.13;18.73;;;;;;;24.57;25.83;101984.03;5233663;28;20040;-70